sensor_id;sensor_type;location;lat;lon;timestamp;pressure;altitude;pressure_sealevel;temperature;humidity
9225;BME280;4647;48.072;11.616;2023-02-22T00:01:03;95172.09;;;1.37;84.26
9225;BME280;4647;48.072;11.616;2023-02-22T00:03:47;95181.63;;;1.57;83.24
9225;BME280;4647;48.072;11.616;2023-02-22T00:06:18;95187.75;;;1.58;83.25
9225;BME280;4647;48.072;11.616;2023-02-22T00:08:49;95182.63;;;1.49;83.20
9225;BME280;4647;48.072;11.616;2023-02-22T00:11:22;95191.34;;;1.46;83.32
9225;BME280;4647;48.072;11.616;2023-02-22T00:13:51;95184.75;;;1.40;83.92
9225;BME280;4647;48.072;11.616;2023-02-22T00:16:22;95190.84;;;1.40;83.36
9225;BME280;4647;48.072;11.616;2023-02-22T00:18:51;95188.53;;;1.39;83.29
9225;BME280;4647;48.072;11.616;2023-02-22T00:21:20;95178.84;;;1.11;83.63
9225;BME280;4647;48.072;11.616;2023-02-22T00:23:49;95179.44;;;1.20;83.90
9225;BME280;4647;48.072;11.616;2023-02-22T00:26:22;95181.47;;;1.27;83.74
9225;BME280;4647;48.072;11.616;2023-02-22T00:28:52;95160.25;;;1.15;83.61
9225;BME280;4647;48.072;11.616;2023-02-22T00:31:20;95194.31;;;1.21;83.97
9225;BME280;4647;48.072;11.616;2023-02-22T00:33:49;95187.84;;;1.22;83.72
9225;BME280;4647;48.072;11.616;2023-02-22T00:36:17;95184.97;;;1.12;84.44
9225;BME280;4647;48.072;11.616;2023-02-22T00:38:46;95185.44;;;1.37;84.03
9225;BME280;4647;48.072;11.616;2023-02-22T00:41:14;95176.00;;;1.20;84.08
9225;BME280;4647;48.072;11.616;2023-02-22T00:43:45;95173.59;;;1.15;83.91
9225;BME280;4647;48.072;11.616;2023-02-22T00:46:14;95168.53;;;1.10;83.97
9225;BME280;4647;48.072;11.616;2023-02-22T00:48:43;95177.31;;;1.10;84.00
9225;BME280;4647;48.072;11.616;2023-02-22T00:51:11;95170.44;;;1.09;84.33
9225;BME280;4647;48.072;11.616;2023-02-22T00:53:39;95170.00;;;1.07;84.26
9225;BME280;4647;48.072;11.616;2023-02-22T00:56:08;95172.69;;;1.07;84.29
9225;BME280;4647;48.072;11.616;2023-02-22T00:58:37;95168.06;;;1.04;84.32
9225;BME280;4647;48.072;11.616;2023-02-22T01:01:10;95159.56;;;0.99;84.51
9225;BME280;4647;48.072;11.616;2023-02-22T01:03:38;95151.50;;;0.95;84.74
9225;BME280;4647;48.072;11.616;2023-02-22T01:06:07;95142.09;;;1.01;84.58
9225;BME280;4647;48.072;11.616;2023-02-22T01:08:35;95152.25;;;1.15;84.33
9225;BME280;4647;48.072;11.616;2023-02-22T01:11:04;95152.53;;;1.29;83.81
9225;BME280;4647;48.072;11.616;2023-02-22T01:13:32;95149.09;;;1.09;84.17
9225;BME280;4647;48.072;11.616;2023-02-22T01:16:01;95152.88;;;1.08;84.05
9225;BME280;4647;48.072;11.616;2023-02-22T01:18:35;95149.16;;;1.32;83.63
9225;BME280;4647;48.072;11.616;2023-02-22T01:21:05;95142.69;;;1.14;83.51
9225;BME280;4647;48.072;11.616;2023-02-22T01:23:33;95141.03;;;1.06;83.31
9225;BME280;4647;48.072;11.616;2023-02-22T01:26:03;95126.50;;;0.84;83.95
9225;BME280;4647;48.072;11.616;2023-02-22T01:28:32;95128.88;;;0.89;83.88
9225;BME280;4647;48.072;11.616;2023-02-22T01:31:00;95145.59;;;1.05;83.92
9225;BME280;4647;48.072;11.616;2023-02-22T01:33:29;95137.72;;;0.93;84.31
9225;BME280;4647;48.072;11.616;2023-02-22T01:36:01;95144.53;;;0.90;84.74
9225;BME280;4647;48.072;11.616;2023-02-22T01:38:35;95139.47;;;0.85;85.19
9225;BME280;4647;48.072;11.616;2023-02-22T01:41:04;95113.88;;;0.81;84.27
9225;BME280;4647;48.072;11.616;2023-02-22T01:43:33;95136.75;;;1.01;84.22
9225;BME280;4647;48.072;11.616;2023-02-22T01:46:02;95141.09;;;0.90;84.39
9225;BME280;4647;48.072;11.616;2023-02-22T01:48:38;95139.38;;;0.63;84.85
9225;BME280;4647;48.072;11.616;2023-02-22T01:51:13;95137.81;;;0.42;85.06
9225;BME280;4647;48.072;11.616;2023-02-22T01:53:47;95137.50;;;0.28;85.10
9225;BME280;4647;48.072;11.616;2023-02-22T01:56:18;95132.75;;;0.37;84.83
9225;BME280;4647;48.072;11.616;2023-02-22T01:58:51;95131.34;;;0.43;84.45
9225;BME280;4647;48.072;11.616;2023-02-22T02:01:22;95142.44;;;0.45;84.48
9225;BME280;4647;48.072;11.616;2023-02-22T02:03:53;95135.56;;;0.44;84.57
9225;BME280;4647;48.072;11.616;2023-02-22T02:06:25;95137.53;;;0.47;84.54
9225;BME280;4647;48.072;11.616;2023-02-22T02:08:59;95127.38;;;0.53;84.74
9225;BME280;4647;48.072;11.616;2023-02-22T02:11:31;95129.69;;;0.54;84.46
9225;BME280;4647;48.072;11.616;2023-02-22T02:14:00;95123.53;;;0.50;84.52
9225;BME280;4647;48.072;11.616;2023-02-22T02:16:34;95118.44;;;0.45;84.63
9225;BME280;4647;48.072;11.616;2023-02-22T02:19:09;95115.63;;;0.38;85.12
9225;BME280;4647;48.072;11.616;2023-02-22T02:21:49;95106.06;;;0.53;84.76
9225;BME280;4647;48.072;11.616;2023-02-22T02:24:36;95107.88;;;0.49;84.71
9225;BME280;4647;48.072;11.616;2023-02-22T02:27:17;95089.28;;;0.33;85.08
9225;BME280;4647;48.072;11.616;2023-02-22T02:32:56;95098.19;;;0.60;85.07
9225;BME280;4647;48.072;11.616;2023-02-22T02:35:43;95095.66;;;0.67;84.88
9225;BME280;4647;48.072;11.616;2023-02-22T02:38:21;95086.13;;;0.66;84.84
9225;BME280;4647;48.072;11.616;2023-02-22T02:40:59;95067.06;;;0.64;84.23
9225;BME280;4647;48.072;11.616;2023-02-22T02:43:33;95084.31;;;0.70;84.36
9225;BME280;4647;48.072;11.616;2023-02-22T02:46:08;95080.53;;;0.71;84.47
9225;BME280;4647;48.072;11.616;2023-02-22T02:48:44;95059.13;;;0.68;84.30
9225;BME280;4647;48.072;11.616;2023-02-22T02:51:15;95050.22;;;0.60;83.96
9225;BME280;4647;48.072;11.616;2023-02-22T02:53:46;95085.53;;;0.73;84.06
9225;BME280;4647;48.072;11.616;2023-02-22T02:56:15;95078.72;;;0.75;84.15
9225;BME280;4647;48.072;11.616;2023-02-22T02:58:46;95063.84;;;0.74;83.67
9225;BME280;4647;48.072;11.616;2023-02-22T03:01:21;95061.94;;;0.75;83.48
9225;BME280;4647;48.072;11.616;2023-02-22T03:04:32;95070.38;;;0.77;83.34
9225;BME280;4647;48.072;11.616;2023-02-22T03:07:14;95067.22;;;0.71;83.10
9225;BME280;4647;48.072;11.616;2023-02-22T03:09:57;95042.09;;;0.53;83.28
9225;BME280;4647;48.072;11.616;2023-02-22T03:12:37;95057.03;;;0.57;83.67
9225;BME280;4647;48.072;11.616;2023-02-22T03:15:18;95051.28;;;0.55;83.37
9225;BME280;4647;48.072;11.616;2023-02-22T03:17:53;95055.00;;;0.51;83.78
9225;BME280;4647;48.072;11.616;2023-02-22T03:20:30;95051.22;;;0.52;83.98
9225;BME280;4647;48.072;11.616;2023-02-22T03:23:05;95054.84;;;0.63;83.87
9225;BME280;4647;48.072;11.616;2023-02-22T03:25:40;95051.81;;;0.65;83.56
9225;BME280;4647;48.072;11.616;2023-02-22T03:28:13;95057.56;;;0.67;83.58
9225;BME280;4647;48.072;11.616;2023-02-22T03:30:46;95056.03;;;0.66;83.66
9225;BME280;4647;48.072;11.616;2023-02-22T03:33:19;95045.72;;;0.64;83.69
9225;BME280;4647;48.072;11.616;2023-02-22T03:35:59;95053.03;;;0.67;83.36
9225;BME280;4647;48.072;11.616;2023-02-22T03:38:32;95050.00;;;0.69;83.37
9225;BME280;4647;48.072;11.616;2023-02-22T03:41:03;95056.03;;;0.66;83.63
9225;BME280;4647;48.072;11.616;2023-02-22T03:43:38;95064.81;;;0.66;83.40
9225;BME280;4647;48.072;11.616;2023-02-22T03:46:08;95060.41;;;0.74;83.43
9225;BME280;4647;48.072;11.616;2023-02-22T03:48:42;95068.47;;;0.77;83.12
9225;BME280;4647;48.072;11.616;2023-02-22T03:51:16;95070.78;;;0.79;82.69
9225;BME280;4647;48.072;11.616;2023-02-22T03:53:45;95068.41;;;0.74;82.95
9225;BME280;4647;48.072;11.616;2023-02-22T03:56:18;95052.19;;;0.63;82.95
9225;BME280;4647;48.072;11.616;2023-02-22T03:58:48;95067.28;;;0.75;82.66
9225;BME280;4647;48.072;11.616;2023-02-22T04:01:17;95068.41;;;0.74;82.35
9225;BME280;4647;48.072;11.616;2023-02-22T04:03:48;95077.66;;;0.80;82.13
9225;BME280;4647;48.072;11.616;2023-02-22T04:06:19;95065.44;;;0.79;82.11
9225;BME280;4647;48.072;11.616;2023-02-22T04:08:48;95062.78;;;0.59;82.83
9225;BME280;4647;48.072;11.616;2023-02-22T04:11:16;95057.25;;;0.49;83.52
9225;BME280;4647;48.072;11.616;2023-02-22T04:13:45;95060.59;;;0.46;83.53
9225;BME280;4647;48.072;11.616;2023-02-22T04:16:13;95072.03;;;0.66;83.27
9225;BME280;4647;48.072;11.616;2023-02-22T04:18:42;95068.31;;;0.70;82.86
9225;BME280;4647;48.072;11.616;2023-02-22T04:21:10;95050.63;;;0.62;82.70
9225;BME280;4647;48.072;11.616;2023-02-22T04:23:42;95049.88;;;0.61;82.32
9225;BME280;4647;48.072;11.616;2023-02-22T04:26:10;95044.75;;;0.53;82.52
9225;BME280;4647;48.072;11.616;2023-02-22T04:28:39;95054.06;;;0.63;82.13
9225;BME280;4647;48.072;11.616;2023-02-22T04:31:08;95056.47;;;0.48;82.55
9225;BME280;4647;48.072;11.616;2023-02-22T04:33:36;95054.06;;;0.43;83.14
9225;BME280;4647;48.072;11.616;2023-02-22T04:36:06;95038.22;;;0.31;82.88
9225;BME280;4647;48.072;11.616;2023-02-22T04:38:35;95045.78;;;0.29;83.29
9225;BME280;4647;48.072;11.616;2023-02-22T04:41:06;95033.34;;;0.17;83.43
9225;BME280;4647;48.072;11.616;2023-02-22T04:43:34;95045.13;;;0.16;84.12
9225;BME280;4647;48.072;11.616;2023-02-22T04:46:03;95046.28;;;0.35;84.45
9225;BME280;4647;48.072;11.616;2023-02-22T04:48:31;95043.91;;;0.49;83.42
9225;BME280;4647;48.072;11.616;2023-02-22T04:51:00;95040.81;;;0.47;83.23
9225;BME280;4647;48.072;11.616;2023-02-22T04:53:28;95034.63;;;0.43;82.93
9225;BME280;4647;48.072;11.616;2023-02-22T04:55:56;95037.38;;;0.46;82.91
9225;BME280;4647;48.072;11.616;2023-02-22T04:58:27;95048.13;;;0.50;82.52
9225;BME280;4647;48.072;11.616;2023-02-22T05:00:56;95042.03;;;0.49;82.47
9225;BME280;4647;48.072;11.616;2023-02-22T05:03:24;95048.31;;;0.41;82.79
9225;BME280;4647;48.072;11.616;2023-02-22T05:05:53;95017.09;;;0.22;82.44
9225;BME280;4647;48.072;11.616;2023-02-22T05:08:21;95031.97;;;0.23;82.52
9225;BME280;4647;48.072;11.616;2023-02-22T05:10:50;95033.72;;;0.16;83.37
9225;BME280;4647;48.072;11.616;2023-02-22T05:13:19;95012.47;;;0.00;83.56
9225;BME280;4647;48.072;11.616;2023-02-22T05:15:50;95028.88;;;0.21;83.23
9225;BME280;4647;48.072;11.616;2023-02-22T05:18:19;95037.38;;;0.27;83.32
9225;BME280;4647;48.072;11.616;2023-02-22T05:20:47;95024.19;;;0.34;82.98
9225;BME280;4647;48.072;11.616;2023-02-22T05:23:15;95029.53;;;0.34;82.59
9225;BME280;4647;48.072;11.616;2023-02-22T05:25:44;95020.09;;;0.21;83.05
9225;BME280;4647;48.072;11.616;2023-02-22T05:28:14;95019.28;;;0.17;83.16
9225;BME280;4647;48.072;11.616;2023-02-22T05:30:42;95019.91;;;0.10;83.61
9225;BME280;4647;48.072;11.616;2023-02-22T05:33:13;95024.19;;;0.15;83.80
9225;BME280;4647;48.072;11.616;2023-02-22T05:35:42;95025.44;;;0.21;83.90
9225;BME280;4647;48.072;11.616;2023-02-22T05:38:12;95013.91;;;0.33;83.07
9225;BME280;4647;48.072;11.616;2023-02-22T05:40:41;95024.06;;;0.27;83.16
9225;BME280;4647;48.072;11.616;2023-02-22T05:43:10;95027.53;;;0.12;83.33
9225;BME280;4647;48.072;11.616;2023-02-22T05:45:40;95022.78;;;0.02;84.02
9225;BME280;4647;48.072;11.616;2023-02-22T05:48:08;95016.81;;;0.08;83.82
9225;BME280;4647;48.072;11.616;2023-02-22T05:50:39;95016.03;;;0.08;83.56
9225;BME280;4647;48.072;11.616;2023-02-22T05:53:08;95022.63;;;0.14;83.79
9225;BME280;4647;48.072;11.616;2023-02-22T05:55:37;95016.50;;;0.29;83.07
9225;BME280;4647;48.072;11.616;2023-02-22T05:58:06;95008.78;;;0.24;82.84
9225;BME280;4647;48.072;11.616;2023-02-22T06:00:34;95017.97;;;0.26;82.88
9225;BME280;4647;48.072;11.616;2023-02-22T06:03:04;95015.72;;;0.28;82.79
9225;BME280;4647;48.072;11.616;2023-02-22T06:05:33;95014.38;;;0.19;83.10
9225;BME280;4647;48.072;11.616;2023-02-22T06:08:05;95013.59;;;0.18;83.22
9225;BME280;4647;48.072;11.616;2023-02-22T06:10:34;95011.91;;;0.10;83.37
9225;BME280;4647;48.072;11.616;2023-02-22T06:13:03;95013.94;;;0.17;83.18
9225;BME280;4647;48.072;11.616;2023-02-22T06:15:32;94934.72;;;-0.25;82.78
9225;BME280;4647;48.072;11.616;2023-02-22T06:18:01;95013.31;;;0.43;82.73
9225;BME280;4647;48.072;11.616;2023-02-22T06:20:29;95025.16;;;0.45;82.65
9225;BME280;4647;48.072;11.616;2023-02-22T06:22:59;94999.50;;;0.37;82.25
9225;BME280;4647;48.072;11.616;2023-02-22T06:25:31;95030.56;;;0.68;81.77
9225;BME280;4647;48.072;11.616;2023-02-22T06:28:00;95017.66;;;0.70;81.60
9225;BME280;4647;48.072;11.616;2023-02-22T06:30:29;94998.81;;;0.59;81.42
9225;BME280;4647;48.072;11.616;2023-02-22T06:32:58;94999.63;;;0.83;80.44
9225;BME280;4647;48.072;11.616;2023-02-22T06:35:27;95029.63;;;0.99;80.33
9225;BME280;4647;48.072;11.616;2023-02-22T06:37:56;95026.78;;;1.11;79.81
9225;BME280;4647;48.072;11.616;2023-02-22T06:40:24;95024.47;;;1.10;79.24
9225;BME280;4647;48.072;11.616;2023-02-22T06:42:57;95025.16;;;1.26;78.72
9225;BME280;4647;48.072;11.616;2023-02-22T06:45:26;94996.25;;;1.09;78.72
9225;BME280;4647;48.072;11.616;2023-02-22T06:47:54;95043.00;;;1.45;78.27
9225;BME280;4647;48.072;11.616;2023-02-22T06:50:24;95042.75;;;1.53;77.52
9225;BME280;4647;48.072;11.616;2023-02-22T06:52:54;95036.22;;;1.74;77.23
9225;BME280;4647;48.072;11.616;2023-02-22T06:55:24;95015.06;;;1.65;76.87
9225;BME280;4647;48.072;11.616;2023-02-22T06:57:56;95046.75;;;1.90;76.65
9225;BME280;4647;48.072;11.616;2023-02-22T07:00:26;95043.44;;;2.00;76.32
9225;BME280;4647;48.072;11.616;2023-02-22T07:02:55;95049.34;;;2.12;76.14
9225;BME280;4647;48.072;11.616;2023-02-22T07:05:25;95032.34;;;1.98;75.09
9225;BME280;4647;48.072;11.616;2023-02-22T07:08:00;95056.47;;;2.31;75.29
9225;BME280;4647;48.072;11.616;2023-02-22T07:10:31;95048.75;;;2.53;74.95
9225;BME280;4647;48.072;11.616;2023-02-22T07:13:03;95055.53;;;2.76;74.02
9225;BME280;4647;48.072;11.616;2023-02-22T07:15:33;95054.19;;;2.93;73.57
9225;BME280;4647;48.072;11.616;2023-02-22T07:18:02;95058.56;;;3.08;72.72
9225;BME280;4647;48.072;11.616;2023-02-22T07:20:32;95057.56;;;3.24;72.44
9225;BME280;4647;48.072;11.616;2023-02-22T07:23:00;95052.34;;;3.38;71.41
9225;BME280;4647;48.072;11.616;2023-02-22T07:25:29;95053.72;;;3.62;70.63
9225;BME280;4647;48.072;11.616;2023-02-22T07:27:58;95053.44;;;3.78;69.72
9225;BME280;4647;48.072;11.616;2023-02-22T07:30:30;95043.25;;;3.50;69.41
9225;BME280;4647;48.072;11.616;2023-02-22T07:33:01;95061.22;;;3.93;68.95
9225;BME280;4647;48.072;11.616;2023-02-22T07:35:31;95051.06;;;4.20;68.04
9225;BME280;4647;48.072;11.616;2023-02-22T07:38:01;95049.22;;;4.28;67.51
9225;BME280;4647;48.072;11.616;2023-02-22T07:40:32;95047.75;;;4.41;67.26
9225;BME280;4647;48.072;11.616;2023-02-22T07:43:03;95040.94;;;4.61;66.60
9225;BME280;4647;48.072;11.616;2023-02-22T07:45:34;95041.03;;;4.83;65.87
9225;BME280;4647;48.072;11.616;2023-02-22T07:48:04;95046.03;;;4.95;65.27
9225;BME280;4647;48.072;11.616;2023-02-22T07:50:34;95034.97;;;5.07;64.66
9225;BME280;4647;48.072;11.616;2023-02-22T07:53:04;95038.47;;;5.22;63.61
9225;BME280;4647;48.072;11.616;2023-02-22T07:55:35;95033.50;;;5.42;63.08
9225;BME280;4647;48.072;11.616;2023-02-22T07:58:06;95028.88;;;5.42;62.68
9225;BME280;4647;48.072;11.616;2023-02-22T08:00:38;95024.66;;;5.34;62.78
9225;BME280;4647;48.072;11.616;2023-02-22T08:03:09;95031.59;;;5.57;62.03
9225;BME280;4647;48.072;11.616;2023-02-22T08:05:40;95030.47;;;5.79;61.47
9225;BME280;4647;48.072;11.616;2023-02-22T08:08:09;95037.34;;;5.87;61.03
9225;BME280;4647;48.072;11.616;2023-02-22T08:10:39;95026.28;;;5.92;60.46
9225;BME280;4647;48.072;11.616;2023-02-22T08:13:07;95036.59;;;6.08;59.78
9225;BME280;4647;48.072;11.616;2023-02-22T08:15:40;95027.38;;;6.20;59.57
9225;BME280;4647;48.072;11.616;2023-02-22T08:18:11;95036.56;;;6.40;58.83
9225;BME280;4647;48.072;11.616;2023-02-22T08:20:42;95023.50;;;6.35;58.73
9225;BME280;4647;48.072;11.616;2023-02-22T08:23:12;95029.56;;;6.67;58.28
9225;BME280;4647;48.072;11.616;2023-02-22T08:25:40;95024.50;;;6.87;57.40
9225;BME280;4647;48.072;11.616;2023-02-22T08:28:10;95023.25;;;7.02;56.49
9225;BME280;4647;48.072;11.616;2023-02-22T08:30:42;95019.28;;;7.25;55.95
9225;BME280;4647;48.072;11.616;2023-02-22T08:33:12;95019.19;;;7.43;55.06
9225;BME280;4647;48.072;11.616;2023-02-22T08:35:44;95009.06;;;7.54;54.29
9225;BME280;4647;48.072;11.616;2023-02-22T08:38:19;95013.22;;;7.69;54.00
9225;BME280;4647;48.072;11.616;2023-02-22T08:40:49;95008.88;;;7.79;53.77
9225;BME280;4647;48.072;11.616;2023-02-22T08:43:19;95003.72;;;7.98;53.32
9225;BME280;4647;48.072;11.616;2023-02-22T08:45:50;94999.75;;;8.10;53.13
9225;BME280;4647;48.072;11.616;2023-02-22T08:48:19;95003.81;;;8.29;53.01
9225;BME280;4647;48.072;11.616;2023-02-22T08:50:48;95004.81;;;8.46;52.66
9225;BME280;4647;48.072;11.616;2023-02-22T08:53:17;94984.00;;;8.46;52.61
9225;BME280;4647;48.072;11.616;2023-02-22T08:55:45;94999.44;;;8.80;52.35
9225;BME280;4647;48.072;11.616;2023-02-22T08:58:14;95004.03;;;8.83;52.54
9225;BME280;4647;48.072;11.616;2023-02-22T09:00:42;95004.34;;;8.88;51.55
9225;BME280;4647;48.072;11.616;2023-02-22T09:03:14;94995.38;;;8.95;50.94
9225;BME280;4647;48.072;11.616;2023-02-22T09:05:43;95001.94;;;9.25;50.49
9225;BME280;4647;48.072;11.616;2023-02-22T09:08:12;94996.94;;;9.50;49.56
9225;BME280;4647;48.072;11.616;2023-02-22T09:10:42;94998.19;;;9.69;49.03
9225;BME280;4647;48.072;11.616;2023-02-22T09:13:12;94996.38;;;9.85;48.98
9225;BME280;4647;48.072;11.616;2023-02-22T09:15:41;95000.25;;;10.08;47.94
9225;BME280;4647;48.072;11.616;2023-02-22T09:18:13;94993.19;;;10.14;48.08
9225;BME280;4647;48.072;11.616;2023-02-22T09:20:42;94995.00;;;10.24;47.84
9225;BME280;4647;48.072;11.616;2023-02-22T09:23:10;94991.97;;;10.42;47.40
9225;BME280;4647;48.072;11.616;2023-02-22T09:25:39;94998.28;;;10.55;46.81
9225;BME280;4647;48.072;11.616;2023-02-22T09:28:08;94999.56;;;10.70;46.21
9225;BME280;4647;48.072;11.616;2023-02-22T09:30:36;94994.41;;;10.76;46.23
9225;BME280;4647;48.072;11.616;2023-02-22T09:33:07;94997.19;;;10.92;45.88
9225;BME280;4647;48.072;11.616;2023-02-22T09:35:40;94997.50;;;11.14;45.08
9225;BME280;4647;48.072;11.616;2023-02-22T09:38:12;94996.69;;;11.33;44.49
9225;BME280;4647;48.072;11.616;2023-02-22T09:40:45;94991.19;;;11.37;42.70
9225;BME280;4647;48.072;11.616;2023-02-22T09:43:23;94986.72;;;11.47;42.20
9225;BME280;4647;48.072;11.616;2023-02-22T09:46:06;94986.56;;;11.70;42.33
9225;BME280;4647;48.072;11.616;2023-02-22T09:48:45;94978.38;;;11.90;41.53
9225;BME280;4647;48.072;11.616;2023-02-22T09:51:21;94985.78;;;12.18;41.53
9225;BME280;4647;48.072;11.616;2023-02-22T09:53:55;94973.19;;;11.95;41.38
9225;BME280;4647;48.072;11.616;2023-02-22T09:56:26;94976.81;;;12.05;41.80
9225;BME280;4647;48.072;11.616;2023-02-22T09:58:59;94976.28;;;12.26;41.06
9225;BME280;4647;48.072;11.616;2023-02-22T10:01:30;94975.16;;;12.24;40.54
9225;BME280;4647;48.072;11.616;2023-02-22T10:04:05;94973.19;;;12.41;40.36
9225;BME280;4647;48.072;11.616;2023-02-22T10:06:46;94969.09;;;12.49;40.04
9225;BME280;4647;48.072;11.616;2023-02-22T10:09:17;94964.59;;;12.71;39.03
9225;BME280;4647;48.072;11.616;2023-02-22T10:11:51;94971.63;;;12.56;38.96
9225;BME280;4647;48.072;11.616;2023-02-22T10:14:35;94960.03;;;12.68;38.97
9225;BME280;4647;48.072;11.616;2023-02-22T10:17:13;94963.19;;;13.21;37.83
9225;BME280;4647;48.072;11.616;2023-02-22T10:19:58;94958.22;;;13.32;37.22
9225;BME280;4647;48.072;11.616;2023-02-22T10:22:51;94964.78;;;13.06;36.18
9225;BME280;4647;48.072;11.616;2023-02-22T10:25:26;94954.72;;;13.44;36.30
9225;BME280;4647;48.072;11.616;2023-02-22T10:28:00;94959.06;;;13.42;36.02
9225;BME280;4647;48.072;11.616;2023-02-22T10:30:32;94927.06;;;13.33;37.02
9225;BME280;4647;48.072;11.616;2023-02-22T10:33:05;94956.03;;;13.52;36.93
9225;BME280;4647;48.072;11.616;2023-02-22T10:35:37;94952.88;;;13.41;36.41
9225;BME280;4647;48.072;11.616;2023-02-22T10:38:16;94957.56;;;13.28;36.89
9225;BME280;4647;48.072;11.616;2023-02-22T10:40:49;94950.56;;;13.40;36.33
9225;BME280;4647;48.072;11.616;2023-02-22T10:43:20;94951.00;;;13.38;36.50
9225;BME280;4647;48.072;11.616;2023-02-22T10:45:51;94944.91;;;13.60;36.92
9225;BME280;4647;48.072;11.616;2023-02-22T10:48:23;94946.75;;;13.63;37.01
9225;BME280;4647;48.072;11.616;2023-02-22T10:50:57;94950.84;;;13.93;36.48
9225;BME280;4647;48.072;11.616;2023-02-22T10:53:29;94943.13;;;13.91;36.89
9225;BME280;4647;48.072;11.616;2023-02-22T10:56:16;94924.78;;;14.04;35.68
9225;BME280;4647;48.072;11.616;2023-02-22T10:58:48;94944.72;;;14.49;36.09
9225;BME280;4647;48.072;11.616;2023-02-22T11:01:23;94947.81;;;14.82;34.85
9225;BME280;4647;48.072;11.616;2023-02-22T11:04:02;94915.59;;;14.89;34.13
9225;BME280;4647;48.072;11.616;2023-02-22T11:06:34;94928.69;;;15.03;34.34
9225;BME280;4647;48.072;11.616;2023-02-22T11:09:11;94934.78;;;15.08;34.64
9225;BME280;4647;48.072;11.616;2023-02-22T11:11:42;94927.78;;;14.97;34.50
9225;BME280;4647;48.072;11.616;2023-02-22T11:14:12;94922.44;;;15.25;34.34
9225;BME280;4647;48.072;11.616;2023-02-22T11:16:42;94917.88;;;15.22;34.04
9225;BME280;4647;48.072;11.616;2023-02-22T11:19:19;94921.63;;;15.46;33.31
9225;BME280;4647;48.072;11.616;2023-02-22T11:21:51;94917.47;;;15.63;33.74
9225;BME280;4647;48.072;11.616;2023-02-22T11:24:24;94920.16;;;15.23;33.68
9225;BME280;4647;48.072;11.616;2023-02-22T11:26:59;94900.84;;;15.49;33.25
9225;BME280;4647;48.072;11.616;2023-02-22T11:29:31;94908.66;;;15.69;32.91
9225;BME280;4647;48.072;11.616;2023-02-22T11:32:03;94908.38;;;15.67;32.93
9225;BME280;4647;48.072;11.616;2023-02-22T11:34:40;94900.19;;;15.76;33.22
9225;BME280;4647;48.072;11.616;2023-02-22T11:37:25;94893.09;;;15.87;33.16
9225;BME280;4647;48.072;11.616;2023-02-22T11:40:12;94897.06;;;15.55;33.49
9225;BME280;4647;48.072;11.616;2023-02-22T11:42:42;94887.13;;;15.61;33.80
9225;BME280;4647;48.072;11.616;2023-02-22T11:45:13;94892.66;;;15.58;33.35
9225;BME280;4647;48.072;11.616;2023-02-22T11:47:51;94879.16;;;15.54;33.29
9225;BME280;4647;48.072;11.616;2023-02-22T11:50:25;94886.66;;;15.72;33.18
9225;BME280;4647;48.072;11.616;2023-02-22T11:53:14;94877.59;;;16.39;31.88
9225;BME280;4647;48.072;11.616;2023-02-22T11:56:03;94876.50;;;16.64;31.61
9225;BME280;4647;48.072;11.616;2023-02-22T11:58:42;94853.72;;;16.67;31.47
9225;BME280;4647;48.072;11.616;2023-02-22T12:01:21;94862.22;;;16.78;31.20
9225;BME280;4647;48.072;11.616;2023-02-22T12:07:16;94863.59;;;16.83;30.75
9225;BME280;4647;48.072;11.616;2023-02-22T12:09:50;94863.59;;;16.55;31.22
9225;BME280;4647;48.072;11.616;2023-02-22T12:12:27;94857.38;;;16.55;31.12
9225;BME280;4647;48.072;11.616;2023-02-22T12:15:02;94857.22;;;16.58;31.15
9225;BME280;4647;48.072;11.616;2023-02-22T12:17:49;94857.69;;;16.48;32.27
9225;BME280;4647;48.072;11.616;2023-02-22T12:20:21;94854.34;;;16.53;32.57
9225;BME280;4647;48.072;11.616;2023-02-22T12:23:03;94862.13;;;16.36;33.40
9225;BME280;4647;48.072;11.616;2023-02-22T12:25:34;94858.00;;;16.32;32.74
9225;BME280;4647;48.072;11.616;2023-02-22T12:28:15;94859.03;;;16.52;32.94
9225;BME280;4647;48.072;11.616;2023-02-22T12:30:50;94847.94;;;16.65;33.09
9225;BME280;4647;48.072;11.616;2023-02-22T12:33:24;94849.63;;;16.53;33.69
9225;BME280;4647;48.072;11.616;2023-02-22T12:35:57;94849.91;;;16.74;33.56
9225;BME280;4647;48.072;11.616;2023-02-22T12:38:30;94843.38;;;16.71;33.07
9225;BME280;4647;48.072;11.616;2023-02-22T12:41:08;94833.28;;;16.17;33.92
9225;BME280;4647;48.072;11.616;2023-02-22T12:43:59;94831.59;;;16.01;34.69
9225;BME280;4647;48.072;11.616;2023-02-22T12:46:32;94833.88;;;16.03;34.00
9225;BME280;4647;48.072;11.616;2023-02-22T12:49:10;94840.09;;;16.03;33.88
9225;BME280;4647;48.072;11.616;2023-02-22T12:51:46;94831.31;;;15.90;33.36
9225;BME280;4647;48.072;11.616;2023-02-22T12:54:20;94833.47;;;15.36;34.36
9225;BME280;4647;48.072;11.616;2023-02-22T12:56:54;94830.78;;;15.55;34.66
9225;BME280;4647;48.072;11.616;2023-02-22T12:59:31;94824.63;;;15.91;34.02
9225;BME280;4647;48.072;11.616;2023-02-22T13:02:10;94831.44;;;16.05;33.07
9225;BME280;4647;48.072;11.616;2023-02-22T13:04:40;94821.56;;;16.35;33.02
9225;BME280;4647;48.072;11.616;2023-02-22T13:07:28;94819.53;;;16.63;33.68
9225;BME280;4647;48.072;11.616;2023-02-22T13:10:35;94817.09;;;16.65;33.74
9225;BME280;4647;48.072;11.616;2023-02-22T13:13:13;94818.44;;;16.78;33.92
9225;BME280;4647;48.072;11.616;2023-02-22T13:15:51;94796.72;;;16.75;33.92
9225;BME280;4647;48.072;11.616;2023-02-22T13:18:27;94811.72;;;16.88;32.57
9225;BME280;4647;48.072;11.616;2023-02-22T13:21:02;94807.88;;;17.04;32.46
9225;BME280;4647;48.072;11.616;2023-02-22T13:23:40;94807.38;;;17.39;31.46
9225;BME280;4647;48.072;11.616;2023-02-22T13:26:17;94774.22;;;17.37;31.49
9225;BME280;4647;48.072;11.616;2023-02-22T13:28:54;94796.53;;;17.44;31.72
9225;BME280;4647;48.072;11.616;2023-02-22T13:31:35;94802.75;;;17.78;30.56
9225;BME280;4647;48.072;11.616;2023-02-22T13:34:23;94791.56;;;18.05;30.42
9225;BME280;4647;48.072;11.616;2023-02-22T13:37:07;94793.34;;;18.08;31.10
9225;BME280;4647;48.072;11.616;2023-02-22T13:40:00;94794.16;;;17.85;31.20
9225;BME280;4647;48.072;11.616;2023-02-22T13:48:50;94782.34;;;17.55;30.97
9225;BME280;4647;48.072;11.616;2023-02-22T13:51:44;94784.66;;;17.47;31.17
9225;BME280;4647;48.072;11.616;2023-02-22T13:54:18;94787.59;;;17.11;32.01
9225;BME280;4647;48.072;11.616;2023-02-22T13:56:49;94784.34;;;17.22;31.53
9225;BME280;4647;48.072;11.616;2023-02-22T13:59:28;94783.19;;;17.37;30.93